createdAt,value
2018-05-26T00:00:44.503Z,948.74
2018-05-26T00:01:44.562Z,948.75
2018-05-26T00:02:44.542Z,948.75
2018-05-26T00:03:44.538Z,948.79
2018-05-26T00:04:44.528Z,948.78
2018-05-26T00:05:44.539Z,948.73
2018-05-26T00:06:45.084Z,948.68
2018-05-26T00:07:44.525Z,948.70
2018-05-26T00:08:44.528Z,948.70
2018-05-26T00:09:45.125Z,948.65
2018-05-26T00:10:44.528Z,948.68
2018-05-26T00:11:44.595Z,948.66
2018-05-26T00:12:44.491Z,948.62
2018-05-26T00:13:45.164Z,948.64
2018-05-26T00:14:44.571Z,948.63
2018-05-26T00:15:44.446Z,948.65
2018-05-26T00:16:44.485Z,948.62
2018-05-26T00:17:44.482Z,948.61
2018-05-26T00:18:44.972Z,948.62
2018-05-26T00:19:44.535Z,948.62
2018-05-26T00:20:44.460Z,948.62
2018-05-26T00:21:44.568Z,948.68
2018-05-26T00:22:44.478Z,948.64
2018-05-26T00:23:44.518Z,948.63
2018-05-26T00:24:45.101Z,948.64
2018-05-26T00:25:44.408Z,948.68
2018-05-26T00:26:44.427Z,948.63
2018-05-26T00:27:44.405Z,948.64
2018-05-26T00:28:44.554Z,948.58
2018-05-26T00:29:44.422Z,948.62
2018-05-26T00:30:44.432Z,948.61
2018-05-26T00:31:44.478Z,948.62
2018-05-26T00:32:44.461Z,948.62
2018-05-26T00:33:44.440Z,948.63
2018-05-26T00:34:44.517Z,948.63
2018-05-26T00:35:44.467Z,948.63
2018-05-26T00:36:44.378Z,948.67
2018-05-26T00:37:45.063Z,948.65
2018-05-26T00:38:44.444Z,948.65
2018-05-26T00:39:44.407Z,948.64
2018-05-26T00:40:44.437Z,948.65
2018-05-26T00:41:45.137Z,948.63
2018-05-26T00:42:44.448Z,948.65
2018-05-26T00:43:44.354Z,948.62
2018-05-26T00:44:44.447Z,948.65
2018-05-26T00:45:44.333Z,948.63
2018-05-26T00:46:44.408Z,948.65
2018-05-26T00:47:44.432Z,948.63
2018-05-26T00:48:44.356Z,948.67
2018-05-26T00:49:44.405Z,948.64
2018-05-26T00:50:44.332Z,948.67
2018-05-26T00:51:45.152Z,948.65
2018-05-26T00:52:44.345Z,948.66
2018-05-26T00:53:45.084Z,948.64
2018-05-26T00:54:44.354Z,948.66
2018-05-26T00:55:44.414Z,948.69
2018-05-26T00:56:44.385Z,948.65
2018-05-26T00:57:44.356Z,948.68
2018-05-26T00:58:44.380Z,948.69
2018-05-26T00:59:44.385Z,948.67
2018-05-26T01:00:44.291Z,948.65
2018-05-26T01:01:44.318Z,948.68
2018-05-26T01:02:44.428Z,948.67
2018-05-26T01:03:44.386Z,948.68
2018-05-26T01:04:44.984Z,948.67
2018-05-26T01:05:44.350Z,948.70
2018-05-26T01:06:44.277Z,948.70
2018-05-26T01:07:45.089Z,948.69
2018-05-26T01:08:44.348Z,948.73
2018-05-26T01:09:45.103Z,948.71
2018-05-26T01:10:44.295Z,948.68
2018-05-26T01:11:44.348Z,948.71
2018-05-26T01:12:44.294Z,948.73
2018-05-26T01:13:44.418Z,948.67
2018-05-26T01:14:44.329Z,948.70
2018-05-26T01:15:45.122Z,948.68
2018-05-26T01:16:44.337Z,948.67
2018-05-26T01:17:44.293Z,948.65
2018-05-26T01:18:44.380Z,948.70
2018-05-26T01:19:44.323Z,948.71
2018-05-26T01:20:44.335Z,948.72
2018-05-26T01:21:44.256Z,948.72
2018-05-26T01:22:44.321Z,948.77
2018-05-26T01:23:44.279Z,948.77
2018-05-26T01:24:44.279Z,948.76
2018-05-26T01:25:44.251Z,948.80
2018-05-26T01:26:44.269Z,948.77
2018-05-26T01:27:44.212Z,948.81
2018-05-26T01:28:44.287Z,948.79
2018-05-26T01:29:44.210Z,948.80
2018-05-26T01:30:44.210Z,948.78
2018-05-26T02:03:57.999Z,948.63
2018-05-26T02:04:57.968Z,948.68
2018-05-26T02:06:50.876Z,948.65
2018-05-26T02:07:50.859Z,948.65
2018-05-26T02:08:50.859Z,948.65
2018-05-26T02:09:50.852Z,948.64
2018-05-26T02:10:50.841Z,948.64
2018-05-26T02:11:50.826Z,948.65
2018-05-26T02:12:50.826Z,948.66
2018-05-26T02:13:50.814Z,948.62
2018-05-26T02:14:50.812Z,948.60
2018-05-26T02:15:50.804Z,948.66
2018-05-26T02:16:50.796Z,948.64
2018-05-26T02:17:50.795Z,948.65
2018-05-26T02:18:50.794Z,948.65
2018-05-26T02:19:50.808Z,948.68
2018-05-26T02:20:50.778Z,948.67
2018-05-26T02:21:50.784Z,948.70
2018-05-26T02:22:50.817Z,948.65
2018-05-26T02:23:50.769Z,948.69
2018-05-26T02:24:50.764Z,948.68
2018-05-26T02:25:50.761Z,948.65
2018-05-26T02:26:50.822Z,948.67
2018-05-26T02:27:50.754Z,948.64
2018-05-26T02:28:50.796Z,948.67
2018-05-26T02:29:50.740Z,948.69
2018-05-26T02:30:50.741Z,948.65
2018-05-26T02:31:50.742Z,948.69
2018-05-26T02:32:50.734Z,948.69
2018-05-26T02:33:50.731Z,948.67
2018-05-26T02:34:50.728Z,948.68
2018-05-26T02:35:50.723Z,948.66
2018-05-26T02:36:50.722Z,948.65
2018-05-26T02:37:50.716Z,948.69
2018-05-26T02:38:50.711Z,948.65
2018-05-26T02:39:50.709Z,948.63
2018-05-26T02:40:50.704Z,948.62
2018-05-26T02:41:50.715Z,948.62
2018-05-26T02:42:50.718Z,948.64
2018-05-26T02:43:50.691Z,948.66
2018-05-26T02:44:50.692Z,948.68
2018-05-26T02:45:50.692Z,948.68
2018-05-26T02:46:50.684Z,948.71
2018-05-26T02:47:50.676Z,948.71
2018-05-26T02:48:50.679Z,948.71
2018-05-26T02:49:50.661Z,948.69
2018-05-26T02:50:50.660Z,948.70
2018-05-26T02:51:50.664Z,948.74
2018-05-26T02:52:50.670Z,948.74
2018-05-26T02:53:50.663Z,948.72
2018-05-26T02:54:50.650Z,948.76
2018-05-26T02:55:50.644Z,948.73
2018-05-26T02:56:50.705Z,948.75
2018-05-26T02:57:50.638Z,948.74
2018-05-26T02:58:50.636Z,948.74
2018-05-26T02:59:50.628Z,948.72
2018-05-26T03:00:50.679Z,948.73
2018-05-26T03:01:50.633Z,948.76
2018-05-26T03:02:50.624Z,948.79
2018-05-26T03:03:50.633Z,948.78
2018-05-26T03:04:50.613Z,948.76
2018-05-26T03:05:50.614Z,948.78
2018-05-26T03:06:50.625Z,948.75
2018-05-26T03:07:50.597Z,948.82
2018-05-26T03:08:50.603Z,948.79
2018-05-26T03:09:50.589Z,948.79
2018-05-26T03:10:50.592Z,948.77
2018-05-26T03:11:50.593Z,948.82
2018-05-26T03:12:50.590Z,948.81
2018-05-26T03:13:50.587Z,948.82
2018-05-26T03:14:50.578Z,948.80
2018-05-26T03:15:50.591Z,948.84
2018-05-26T03:16:50.568Z,948.79
2018-05-26T03:17:50.572Z,948.80
2018-05-26T03:18:50.562Z,948.81
2018-05-26T03:19:50.561Z,948.81
2018-05-26T03:20:50.558Z,948.81
2018-05-26T03:21:50.552Z,948.84
2018-05-26T03:22:50.556Z,948.84
2018-05-26T03:23:50.558Z,948.84
2018-05-26T03:24:50.535Z,948.83
2018-05-26T03:25:50.573Z,948.80
2018-05-26T03:26:50.583Z,948.83
2018-05-26T03:27:50.531Z,948.81
2018-05-26T03:28:50.527Z,948.85
2018-05-26T03:29:50.517Z,948.83
2018-05-26T03:30:50.511Z,948.81
2018-05-26T03:31:50.532Z,948.84
2018-05-26T03:32:50.513Z,948.83
2018-05-26T03:33:50.509Z,948.88
2018-05-26T03:34:50.521Z,948.87
2018-05-26T03:35:50.499Z,948.89
2018-05-26T03:36:50.500Z,948.87
2018-05-26T03:37:50.487Z,948.87
2018-05-26T03:38:50.501Z,948.88
2018-05-26T03:39:50.501Z,948.92
2018-05-26T03:40:50.497Z,948.92
2018-05-26T03:41:50.471Z,948.92
2018-05-26T03:42:50.471Z,948.92
2018-05-26T03:43:50.476Z,948.91
2018-05-26T03:44:50.469Z,948.91
2018-05-26T03:45:50.463Z,948.88
2018-05-26T03:46:50.474Z,948.93
2018-05-26T03:47:50.449Z,948.91
2018-05-26T03:48:50.453Z,948.93
2018-05-26T03:49:50.452Z,948.95
2018-05-26T03:50:50.454Z,948.91
2018-05-26T03:51:50.458Z,948.97
2018-05-26T03:52:50.444Z,948.95
2018-05-26T03:53:50.432Z,948.97
2018-05-26T03:54:50.430Z,948.96
2018-05-26T03:55:50.433Z,948.96
2018-05-26T03:56:50.514Z,948.96
2018-05-26T03:57:50.414Z,948.94
2018-05-26T03:58:50.413Z,948.95
2018-05-26T03:59:50.414Z,948.97
2018-05-26T04:00:50.411Z,948.95
2018-05-26T04:01:50.451Z,948.96
2018-05-26T04:02:50.394Z,948.98
2018-05-26T04:03:50.402Z,949.01
2018-05-26T04:04:50.393Z,949.03
2018-05-26T04:05:50.434Z,949.00
2018-05-26T04:06:50.384Z,949.08
2018-05-26T04:07:50.383Z,949.07
2018-05-26T04:08:50.395Z,949.03
2018-05-26T04:09:50.374Z,949.06
2018-05-26T04:10:50.393Z,949.08
2018-05-26T04:11:50.374Z,949.10
2018-05-26T04:12:50.370Z,949.11
2018-05-26T04:13:50.364Z,949.13
2018-05-26T04:14:50.359Z,949.13
2018-05-26T04:15:50.369Z,949.15
2018-05-26T04:16:50.357Z,949.17
2018-05-26T04:17:50.347Z,949.19
2018-05-26T04:18:50.352Z,949.16
2018-05-26T04:19:50.346Z,949.14
2018-05-26T04:20:50.361Z,949.16
2018-05-26T04:21:50.342Z,949.14
2018-05-26T04:22:50.387Z,949.17
2018-05-26T04:23:50.333Z,949.20
2018-05-26T04:24:50.333Z,949.17
2018-05-26T04:25:50.336Z,949.18
2018-05-26T04:26:50.364Z,949.21
2018-05-26T04:27:50.323Z,949.24
2018-05-26T04:28:50.317Z,949.22
2018-05-26T04:29:50.316Z,949.20
2018-05-26T04:30:50.318Z,949.28
2018-05-26T04:31:50.316Z,949.24
2018-05-26T04:32:50.336Z,949.22
2018-05-26T04:33:50.372Z,949.25
2018-05-26T04:34:50.306Z,949.22
2018-05-26T04:35:50.303Z,949.24
2018-05-26T04:36:50.298Z,949.25
2018-05-26T04:37:50.310Z,949.28
2018-05-26T04:38:50.307Z,949.24
2018-05-26T04:39:50.298Z,949.25
2018-05-26T04:40:50.292Z,949.29
2018-05-26T04:41:50.293Z,949.27
2018-05-26T04:42:50.287Z,949.33
2018-05-26T04:43:50.285Z,949.31
2018-05-26T04:44:50.288Z,949.36
2018-05-26T04:45:50.283Z,949.39
2018-05-26T04:46:50.279Z,949.42
2018-05-26T04:47:50.278Z,949.40
2018-05-26T04:48:50.278Z,949.42
2018-05-26T04:49:50.281Z,949.44
2018-05-26T04:50:50.274Z,949.45
2018-05-26T04:51:50.306Z,949.48
2018-05-26T04:52:50.282Z,949.47
2018-05-26T04:53:50.266Z,949.44
2018-05-26T04:54:50.263Z,949.43
2018-05-26T04:55:50.262Z,949.43
2018-05-26T04:56:50.314Z,949.48
2018-05-26T04:57:50.263Z,949.44
2018-05-26T04:58:50.255Z,949.45
2018-05-26T04:59:50.249Z,949.46
2018-05-26T05:00:50.253Z,949.46
2018-05-26T05:01:50.251Z,949.49
2018-05-26T05:02:50.252Z,949.44
2018-05-26T05:03:50.261Z,949.47
2018-05-26T05:04:50.270Z,949.46
2018-05-26T05:05:50.275Z,949.46
2018-05-26T05:06:50.243Z,949.49
2018-05-26T05:07:50.264Z,949.49
2018-05-26T05:08:50.256Z,949.52
2018-05-26T05:09:50.245Z,949.51
2018-05-26T05:10:50.235Z,949.55
2018-05-26T05:11:50.223Z,949.57
2018-05-26T05:12:50.222Z,949.57
2018-05-26T05:13:50.229Z,949.56
2018-05-26T05:14:50.235Z,949.57
2018-05-26T05:15:50.240Z,949.58
2018-05-26T05:16:50.233Z,949.59
2018-05-26T05:17:50.234Z,949.57
2018-05-26T05:18:50.229Z,949.57
2018-05-26T05:19:50.227Z,949.58
2018-05-26T05:20:50.234Z,949.56
2018-05-26T05:21:50.220Z,949.57
2018-05-26T05:22:50.276Z,949.51
2018-05-26T05:23:50.220Z,949.56
2018-05-26T05:24:50.214Z,949.54
2018-05-26T05:25:50.243Z,949.53
2018-05-26T05:26:50.249Z,949.49
2018-05-26T05:27:50.222Z,949.57
2018-05-26T05:28:50.232Z,949.56
2018-05-26T05:29:50.213Z,949.52
2018-05-26T05:30:50.228Z,949.49
2018-05-26T05:31:50.211Z,949.54
2018-05-26T05:32:50.207Z,949.48
2018-05-26T05:33:50.208Z,949.52
2018-05-26T05:34:50.209Z,949.53
2018-05-26T05:35:52.925Z,949.53
2018-05-26T05:36:50.263Z,949.51
2018-05-26T05:37:50.875Z,949.50
2018-05-26T05:38:50.225Z,949.53
2018-05-26T05:39:50.236Z,949.53
2018-05-26T05:40:50.237Z,949.57
2018-05-26T05:41:50.243Z,949.54
2018-05-26T05:42:50.242Z,949.54
2018-05-26T05:43:50.259Z,949.56
2018-05-26T05:44:50.216Z,949.54
2018-05-26T05:45:50.214Z,949.54
2018-05-26T05:46:50.227Z,949.55
2018-05-26T05:47:50.237Z,949.55
2018-05-26T05:48:50.212Z,949.55
2018-05-26T05:49:50.209Z,949.53
2018-05-26T05:50:50.250Z,949.56
2018-05-26T05:51:50.227Z,949.59
2018-05-26T05:52:50.213Z,949.59
2018-05-26T05:53:50.208Z,949.60
2018-05-26T05:54:50.207Z,949.60
2018-05-26T05:55:50.207Z,949.68
2018-05-26T05:56:50.255Z,949.63
2018-05-26T05:57:50.201Z,949.67
2018-05-26T05:58:50.217Z,949.65
2018-05-26T05:59:50.246Z,949.65
2018-05-26T06:00:50.221Z,949.65
2018-05-26T06:01:50.201Z,949.64
2018-05-26T06:02:50.201Z,949.66
2018-05-26T06:03:50.200Z,949.66
2018-05-26T06:04:50.193Z,949.68
2018-05-26T06:05:50.194Z,949.62
2018-05-26T06:06:50.190Z,949.61
2018-05-26T06:07:50.212Z,949.65
2018-05-26T06:08:50.187Z,949.63
2018-05-26T06:09:50.187Z,949.67
2018-05-26T06:10:50.188Z,949.65
2018-05-26T06:11:50.188Z,949.70
2018-05-26T06:12:50.180Z,949.70
2018-05-26T06:13:50.191Z,949.66
2018-05-26T06:14:50.246Z,949.66
2018-05-26T06:15:50.246Z,949.68
2018-05-26T06:16:50.200Z,949.65
2018-05-26T06:17:50.194Z,949.66
2018-05-26T06:18:50.185Z,949.66
2018-05-26T06:19:50.276Z,949.63
2018-05-26T06:20:50.187Z,949.64
2018-05-26T06:21:50.297Z,949.58
2018-05-26T06:22:50.221Z,949.61
2018-05-26T06:23:50.212Z,949.59
2018-05-26T06:24:50.190Z,949.63
2018-05-26T06:25:50.205Z,949.61
2018-05-26T06:26:50.183Z,949.63
2018-05-26T06:27:50.205Z,949.60
2018-05-26T06:28:50.885Z,949.65
2018-05-26T06:29:50.280Z,949.65
2018-05-26T06:30:50.187Z,949.63
2018-05-26T06:31:50.924Z,949.64
2018-05-26T06:32:50.244Z,949.67
2018-05-26T06:33:50.179Z,949.71
2018-05-26T06:34:50.191Z,949.71
2018-05-26T06:35:50.293Z,949.71
2018-05-26T06:36:50.260Z,949.74
2018-05-26T06:37:50.225Z,949.75
2018-05-26T06:38:50.223Z,949.77
2018-05-26T06:39:50.190Z,949.79
2018-05-26T06:40:50.209Z,949.79
2018-05-26T06:41:50.300Z,949.75
2018-05-26T06:42:50.252Z,949.76
2018-05-26T06:43:50.258Z,949.73
2018-05-26T06:44:50.245Z,949.75
2018-05-26T06:45:50.267Z,949.74
2018-05-26T06:46:50.221Z,949.72
2018-05-26T06:47:50.289Z,949.71
2018-05-26T06:48:50.362Z,949.72
2018-05-26T06:49:50.579Z,949.76
2018-05-26T06:50:50.520Z,949.79
2018-05-26T06:51:50.204Z,949.83
2018-05-26T06:52:50.370Z,949.86
2018-05-26T06:53:51.000Z,949.84
2018-05-26T06:54:50.194Z,949.91
2018-05-26T06:55:50.200Z,949.90
2018-05-26T06:56:50.225Z,949.89
2018-05-26T06:57:50.208Z,949.91
2018-05-26T06:58:51.978Z,949.90
2018-05-26T06:59:50.366Z,949.94
2018-05-26T07:00:50.215Z,949.95
2018-05-26T07:01:50.481Z,949.95
2018-05-26T07:02:50.250Z,949.95
2018-05-26T07:03:50.364Z,949.97
2018-05-26T07:04:53.182Z,949.95
2018-05-26T07:05:50.327Z,950.00
2018-05-26T07:06:50.246Z,950.09
2018-05-26T07:07:50.886Z,950.05
2018-05-26T07:08:50.366Z,950.05
2018-05-26T07:09:50.261Z,950.07
2018-05-26T07:10:50.446Z,950.06
2018-05-26T07:11:50.305Z,950.03
2018-05-26T07:12:50.418Z,950.01
2018-05-26T07:13:50.313Z,950.05
2018-05-26T07:14:50.364Z,950.06
2018-05-26T07:15:50.322Z,950.05
2018-05-26T07:16:50.434Z,950.04
2018-05-26T07:17:50.316Z,950.03
2018-05-26T07:18:50.388Z,950.01
2018-05-26T07:19:50.510Z,950.00
2018-05-26T07:20:50.358Z,949.98
2018-05-26T07:21:50.357Z,949.99
2018-05-26T07:22:50.419Z,949.98
2018-05-26T07:23:50.369Z,949.97
2018-05-26T07:24:50.391Z,950.00
2018-05-26T07:25:50.379Z,949.96
2018-05-26T07:26:50.400Z,949.97
2018-05-26T07:27:50.480Z,949.92
2018-05-26T07:28:50.540Z,949.91
2018-05-26T07:29:50.468Z,949.95
2018-05-26T07:30:50.544Z,949.98
2018-05-26T07:31:50.496Z,949.95
2018-05-26T07:32:50.532Z,949.95
2018-05-26T07:33:51.441Z,949.98
2018-05-26T07:34:50.500Z,949.96
2018-05-26T07:35:50.574Z,949.96
2018-05-26T07:36:50.558Z,949.92
2018-05-26T07:37:50.626Z,949.90
2018-05-26T07:38:50.578Z,949.87
2018-05-26T07:39:50.623Z,949.84
2018-05-26T07:40:50.729Z,949.89
2018-05-26T07:41:51.401Z,949.89
2018-05-26T07:42:50.696Z,949.88
2018-05-26T07:43:50.718Z,949.85
2018-05-26T07:44:50.711Z,949.86
2018-05-26T07:45:50.686Z,949.84
2018-05-26T07:46:50.730Z,949.86
2018-05-26T07:47:50.755Z,949.89
2018-05-26T07:48:50.861Z,949.91
2018-05-26T07:49:50.768Z,949.89
2018-05-26T07:50:50.792Z,949.92
2018-05-26T07:51:50.810Z,949.92
2018-05-26T07:52:50.793Z,949.97
2018-05-26T07:53:50.823Z,949.96
2018-05-26T07:54:50.817Z,949.98
2018-05-26T07:55:51.502Z,949.98
2018-05-26T07:56:50.853Z,949.98
2018-05-26T07:57:50.867Z,949.98
2018-05-26T07:58:50.932Z,949.99
2018-05-26T07:59:51.004Z,950.02
2018-05-26T08:00:50.935Z,950.01
2018-05-26T08:01:50.927Z,950.02
2018-05-26T08:02:50.971Z,950.01
2018-05-26T08:03:50.948Z,949.99
2018-05-26T08:04:50.956Z,950.01
2018-05-26T08:05:50.950Z,950.00
2018-05-26T08:06:50.972Z,950.04
2018-05-26T08:07:50.976Z,950.03
2018-05-26T08:08:50.985Z,950.03
2018-05-26T08:09:50.998Z,950.07
2018-05-26T08:10:51.053Z,950.01
2018-05-26T08:11:51.038Z,950.00
2018-05-26T08:12:51.105Z,950.04
2018-05-26T08:13:51.112Z,950.04
2018-05-26T08:14:51.091Z,950.04
2018-05-26T08:15:51.095Z,950.10
2018-05-26T08:16:51.116Z,950.09
2018-05-26T08:17:51.155Z,950.14
2018-05-26T08:18:51.142Z,950.15
2018-05-26T08:19:51.179Z,950.19
2018-05-26T08:20:51.202Z,950.17
2018-05-26T08:21:51.201Z,950.16
2018-05-26T08:22:51.208Z,950.18
2018-05-26T08:23:51.991Z,950.17
2018-05-26T08:24:51.286Z,950.19
2018-05-26T08:25:51.282Z,950.16
2018-05-26T08:26:51.310Z,950.15
2018-05-26T08:27:51.299Z,950.13
2018-05-26T08:28:51.317Z,950.10
2018-05-26T08:29:51.331Z,950.11
2018-05-26T08:30:51.366Z,950.12
2018-05-26T08:31:51.364Z,950.07
2018-05-26T08:32:51.381Z,950.14
2018-05-26T08:33:51.439Z,950.12
2018-05-26T08:34:51.417Z,950.13
2018-05-26T08:35:51.487Z,950.14
2018-05-26T08:36:51.471Z,950.12
2018-05-26T08:37:51.457Z,950.15
2018-05-26T08:38:51.510Z,950.14
2018-05-26T08:39:51.533Z,950.17
2018-05-26T08:40:51.497Z,950.19
2018-05-26T08:41:51.526Z,950.15
2018-05-26T08:42:51.588Z,950.17
2018-05-26T08:43:51.630Z,950.19
2018-05-26T08:44:51.571Z,950.16
2018-05-26T08:45:51.597Z,950.18
2018-05-26T08:46:51.621Z,950.20
2018-05-26T08:47:51.662Z,950.19
2018-05-26T08:48:51.667Z,950.21
2018-05-26T08:49:51.685Z,950.21
2018-05-26T08:50:51.700Z,950.23
2018-05-26T08:51:51.706Z,950.18
2018-05-26T08:52:51.729Z,950.21
2018-05-26T08:53:51.833Z,950.19
2018-05-26T08:54:51.828Z,950.21
2018-05-26T08:55:51.818Z,950.20
2018-05-26T08:56:51.774Z,950.16
2018-05-26T08:57:51.792Z,950.17
2018-05-26T08:58:51.842Z,950.16
2018-05-26T08:59:51.827Z,950.17
2018-05-26T09:00:51.846Z,950.17
2018-05-26T09:01:51.863Z,950.16
2018-05-26T09:02:51.899Z,950.17
2018-05-26T09:03:51.910Z,950.16
2018-05-26T09:04:51.907Z,950.28
2018-05-26T09:05:51.928Z,950.25
2018-05-26T09:06:51.943Z,950.26
2018-05-26T09:07:51.994Z,950.24
2018-05-26T09:08:51.975Z,950.23
2018-05-26T09:09:52.046Z,950.28
2018-05-26T09:10:52.051Z,950.27
2018-05-26T09:11:52.042Z,950.25
2018-05-26T09:12:52.052Z,950.28
2018-05-26T09:13:52.053Z,950.27
2018-05-26T09:14:52.128Z,950.31
2018-05-26T09:15:52.150Z,950.26
2018-05-26T09:16:52.344Z,950.27
2018-05-26T09:17:52.255Z,950.33
2018-05-26T09:18:52.473Z,950.32
2018-05-26T09:19:52.367Z,950.29
2018-05-26T09:20:52.387Z,950.33
2018-05-26T09:21:52.498Z,950.34
2018-05-26T09:22:52.605Z,950.33
2018-05-26T09:23:52.344Z,950.30
2018-05-26T09:24:52.356Z,950.27
2018-05-26T09:25:52.522Z,950.28
2018-05-26T09:26:52.417Z,950.29
2018-05-26T09:27:52.389Z,950.35
2018-05-26T09:28:52.556Z,950.34
2018-05-26T09:29:52.474Z,950.31
2018-05-26T09:30:52.483Z,950.30
2018-05-26T09:31:52.513Z,950.29
2018-05-26T09:32:52.493Z,950.30
2018-05-26T09:33:52.568Z,950.26
2018-05-26T09:34:52.620Z,950.31
2018-05-26T09:35:52.543Z,950.28
2018-05-26T09:36:52.540Z,950.28
2018-05-26T09:37:52.620Z,950.30
2018-05-26T09:38:52.679Z,950.34
2018-05-26T09:39:52.637Z,950.36
2018-05-26T09:40:52.835Z,950.33
2018-05-26T09:41:52.787Z,950.34
2018-05-26T09:42:52.820Z,950.36
2018-05-26T09:43:52.697Z,950.39
2018-05-26T09:44:52.694Z,950.38
2018-05-26T09:45:52.749Z,950.42
2018-05-26T09:46:52.728Z,950.42
2018-05-26T09:47:52.746Z,950.38
2018-05-26T09:48:52.795Z,950.36
2018-05-26T09:49:52.822Z,950.39
2018-05-26T09:50:52.917Z,950.38
2018-05-26T09:51:52.953Z,950.40
2018-05-26T09:52:52.877Z,950.38
2018-05-26T09:53:52.999Z,950.36
2018-05-26T09:54:52.853Z,950.36
2018-05-26T09:55:52.861Z,950.35
2018-05-26T09:56:52.901Z,950.33
2018-05-26T09:57:52.918Z,950.28
2018-05-26T09:58:52.935Z,950.32
2018-05-26T09:59:53.121Z,950.29
2018-05-26T10:00:53.015Z,950.29
2018-05-26T10:01:53.073Z,950.29
2018-05-26T10:02:53.009Z,950.29
2018-05-26T10:03:53.035Z,950.28
2018-05-26T10:04:53.105Z,950.27
2018-05-26T10:05:53.130Z,950.26
2018-05-26T10:06:53.148Z,950.30
2018-05-26T10:07:53.290Z,950.33
2018-05-26T10:08:53.119Z,950.36
2018-05-26T10:09:53.312Z,950.31
2018-05-26T10:10:53.094Z,950.34
2018-05-26T10:11:53.181Z,950.36
2018-05-26T10:12:53.211Z,950.31
2018-05-26T10:13:53.199Z,950.35
2018-05-26T10:14:53.244Z,950.31
2018-05-26T10:15:53.219Z,950.29
2018-05-26T10:16:53.425Z,950.31
2018-05-26T10:17:53.576Z,950.29
2018-05-26T10:18:53.571Z,950.35
2018-05-26T10:19:53.963Z,950.37
2018-05-26T10:20:53.440Z,950.33
2018-05-26T10:21:53.560Z,950.38
2018-05-26T10:22:53.390Z,950.37
2018-05-26T10:23:53.460Z,950.35
2018-05-26T10:24:53.479Z,950.40
2018-05-26T10:25:53.730Z,950.33
2018-05-26T10:26:53.475Z,950.35
2018-05-26T10:27:53.581Z,950.38
2018-05-26T10:28:53.475Z,950.37
2018-05-26T10:29:53.640Z,950.34
2018-05-26T10:30:53.579Z,950.34
2018-05-26T10:31:53.650Z,950.33
2018-05-26T10:32:53.607Z,950.31
2018-05-26T10:33:53.633Z,950.32
2018-05-26T10:34:53.605Z,950.34
2018-05-26T10:35:53.683Z,950.35
2018-05-26T10:36:53.596Z,950.35
2018-05-26T10:37:53.584Z,950.41
2018-05-26T10:38:53.596Z,950.41
2018-05-26T10:39:53.571Z,950.43
2018-05-26T10:40:53.589Z,950.41
2018-05-26T10:41:53.606Z,950.47
2018-05-26T10:42:53.622Z,950.48
2018-05-26T10:43:53.635Z,950.51
2018-05-26T10:44:53.659Z,950.49
2018-05-26T10:45:53.682Z,950.50
2018-05-26T10:46:54.401Z,950.48
2018-05-26T10:47:53.718Z,950.47
2018-05-26T10:48:53.733Z,950.50
2018-05-26T10:49:53.748Z,950.48
2018-05-26T10:50:53.780Z,950.47
2018-05-26T10:51:53.807Z,950.47
2018-05-26T10:52:53.838Z,950.48
2018-05-26T10:53:53.907Z,950.44
2018-05-26T10:54:53.857Z,950.45
2018-05-26T10:55:53.928Z,950.47
2018-05-26T10:56:53.907Z,950.48
2018-05-26T10:57:53.913Z,950.47
2018-05-26T10:58:53.954Z,950.47
2018-05-26T10:59:53.989Z,950.44
2018-05-26T11:00:53.993Z,950.46
2018-05-26T11:01:53.999Z,950.47
2018-05-26T11:02:54.031Z,950.48
2018-05-26T11:03:54.034Z,950.47
2018-05-26T11:04:54.090Z,950.46
2018-05-26T11:05:54.121Z,950.47
2018-05-26T11:06:54.082Z,950.45
2018-05-26T11:07:54.109Z,950.45
2018-05-26T11:08:54.124Z,950.41
2018-05-26T11:09:54.150Z,950.45
2018-05-26T11:10:54.165Z,950.43
2018-05-26T11:11:54.227Z,950.44
2018-05-26T11:12:54.239Z,950.42
2018-05-26T11:13:54.232Z,950.38
2018-05-26T11:14:54.258Z,950.39
2018-05-26T11:15:54.310Z,950.42
2018-05-26T11:16:54.302Z,950.43
2018-05-26T11:17:54.491Z,950.41
2018-05-26T11:18:54.355Z,950.36
2018-05-26T11:19:54.340Z,950.35
2018-05-26T11:20:54.365Z,950.39
2018-05-26T11:21:54.379Z,950.38
2018-05-26T11:22:54.411Z,950.36
2018-05-26T11:23:54.456Z,950.35
2018-05-26T11:24:54.546Z,950.35
2018-05-26T11:25:54.464Z,950.34
2018-05-26T11:26:54.484Z,950.31
2018-05-26T11:27:54.500Z,950.34
2018-05-26T11:28:54.582Z,950.36
2018-05-26T11:29:54.771Z,950.33
2018-05-26T11:30:54.608Z,950.31
2018-05-26T11:31:54.576Z,950.30
2018-05-26T11:32:54.590Z,950.30
2018-05-26T11:33:54.636Z,950.27
2018-05-26T11:34:54.639Z,950.30
2018-05-26T11:35:54.697Z,950.30
2018-05-26T11:36:54.663Z,950.30
2018-05-26T11:37:54.702Z,950.28
2018-05-26T11:38:54.802Z,950.21
2018-05-26T11:39:54.735Z,950.25
2018-05-26T11:40:54.824Z,950.25
2018-05-26T11:41:54.762Z,950.23
2018-05-26T11:42:54.830Z,950.22
2018-05-26T11:43:54.797Z,950.22
2018-05-26T11:44:54.824Z,950.21
2018-05-26T11:45:54.830Z,950.18
2018-05-26T11:46:54.868Z,950.20
2018-05-26T11:47:54.909Z,950.21
2018-05-26T11:48:54.902Z,950.19
2018-05-26T11:49:54.937Z,950.16
2018-05-26T11:50:54.931Z,950.16
2018-05-26T11:51:54.944Z,950.20
2018-05-26T11:52:54.993Z,950.22
2018-05-26T11:53:55.028Z,950.18
2018-05-26T11:54:55.043Z,950.18
2018-05-26T11:55:55.057Z,950.19
2018-05-26T11:56:55.068Z,950.16
2018-05-26T11:57:55.056Z,950.23
2018-05-26T11:58:55.079Z,950.15
2018-05-26T11:59:55.116Z,950.22
2018-05-26T12:00:55.105Z,950.21
2018-05-26T12:01:55.170Z,950.19
2018-05-26T12:02:55.146Z,950.17
2018-05-26T12:03:55.190Z,950.18
2018-05-26T12:04:55.175Z,950.19
2018-05-26T12:05:55.210Z,950.23
2018-05-26T12:06:55.216Z,950.21
2018-05-26T12:07:55.236Z,950.23
2018-05-26T12:08:55.258Z,950.24
2018-05-26T12:09:55.268Z,950.23
2018-05-26T12:10:55.336Z,950.23
2018-05-26T12:11:55.304Z,950.20
2018-05-26T12:12:55.388Z,950.21
2018-05-26T12:13:55.341Z,950.18
2018-05-26T12:14:55.361Z,950.24
2018-05-26T12:15:55.394Z,950.23
2018-05-26T12:16:55.391Z,950.23
2018-05-26T12:17:55.406Z,950.24
2018-05-26T12:18:55.428Z,950.22
2018-05-26T12:19:55.435Z,950.27
2018-05-26T12:20:55.465Z,950.27
2018-05-26T12:21:55.543Z,950.27
2018-05-26T12:22:55.485Z,950.28
2018-05-26T12:23:55.512Z,950.23
2018-05-26T12:24:55.531Z,950.27
2018-05-26T12:25:55.549Z,950.28
2018-05-26T12:26:55.585Z,950.31
2018-05-26T12:27:55.574Z,950.26
2018-05-26T12:28:55.597Z,950.24
2018-05-26T12:29:55.613Z,950.25
2018-05-26T12:30:55.675Z,950.27
2018-05-26T12:31:55.660Z,950.27
2018-05-26T12:32:55.657Z,950.19
2018-05-26T12:33:55.709Z,950.24
2018-05-26T12:34:55.690Z,950.18
2018-05-26T12:35:55.709Z,950.14
2018-05-26T12:36:55.745Z,950.14
2018-05-26T12:37:55.740Z,950.14
2018-05-26T12:38:55.757Z,950.17
2018-05-26T12:39:55.765Z,950.10
2018-05-26T12:40:55.882Z,950.09
2018-05-26T12:41:55.830Z,950.08
2018-05-26T12:42:55.835Z,950.09
2018-05-26T12:43:55.833Z,950.06
2018-05-26T12:44:55.922Z,950.05
2018-05-26T12:45:55.850Z,950.12
2018-05-26T12:46:55.965Z,950.03
2018-05-26T12:47:55.922Z,950.05
2018-05-26T12:48:55.915Z,950.07
2018-05-26T12:49:55.902Z,950.01
2018-05-26T12:50:56.554Z,950.00
2018-05-26T12:51:55.956Z,950.00
2018-05-26T12:52:55.898Z,949.99
2018-05-26T12:53:55.954Z,949.97
2018-05-26T12:54:55.935Z,949.98
2018-05-26T12:55:55.931Z,950.03
2018-05-26T12:56:55.957Z,950.02
2018-05-26T12:57:55.971Z,949.99
2018-05-26T12:58:55.989Z,949.98
2018-05-26T12:59:55.984Z,950.02
2018-05-26T13:00:55.981Z,949.96
2018-05-26T13:01:55.985Z,949.98